createdAt,value
2022-09-11T00:00:02.893Z,36.40
2022-09-11T00:02:34.658Z,35.57
2022-09-11T00:04:56.474Z,36.70
2022-09-11T00:07:18.321Z,35.50
2022-09-11T00:09:40.092Z,38.33
2022-09-11T00:12:02.491Z,38.40
2022-09-11T00:14:26.475Z,36.47
2022-09-11T00:16:48.381Z,35.85
2022-09-11T00:19:18.775Z,39.93
2022-09-11T00:21:40.773Z,40.07
2022-09-11T00:24:04.408Z,38.83
2022-09-11T00:26:26.830Z,46.80
2022-09-11T00:28:50.650Z,42.23
2022-09-11T00:31:18.137Z,42.00
2022-09-11T00:33:41.976Z,37.30
2022-09-11T00:36:13.204Z,40.10
2022-09-11T00:38:38.027Z,40.57
2022-09-11T00:41:02.139Z,39.80
2022-09-11T00:43:25.993Z,42.83
2022-09-11T00:45:58.173Z,41.38
2022-09-11T00:48:25.119Z,35.90
2022-09-11T00:50:48.211Z,41.23
2022-09-11T00:53:16.054Z,36.73
2022-09-11T00:55:43.447Z,41.73
2022-09-11T00:58:18.810Z,38.63
2022-09-11T01:00:44.716Z,43.20
2022-09-11T01:03:06.748Z,39.80
2022-09-11T01:05:34.627Z,43.17
2022-09-11T01:07:56.723Z,44.30
2022-09-11T01:10:18.962Z,38.73
2022-09-11T01:13:01.083Z,47.00
2022-09-11T01:15:38.846Z,44.23
2022-09-11T01:18:10.841Z,38.97
2022-09-11T01:20:43.423Z,41.00
2022-09-11T01:23:29.321Z,43.90
2022-09-11T01:26:10.150Z,42.87
2022-09-11T01:29:02.924Z,45.13
2022-09-11T01:31:34.315Z,42.77
2022-09-11T01:34:31.545Z,39.17
2022-09-11T01:37:06.826Z,43.20
2022-09-11T01:39:38.510Z,41.37
2022-09-11T01:42:11.092Z,43.53
2022-09-11T01:44:41.712Z,43.27
2022-09-11T01:47:13.580Z,40.00
2022-09-11T01:49:45.020Z,44.73
2022-09-11T01:52:15.465Z,51.77
2022-09-11T01:54:54.289Z,49.70
2022-09-11T01:57:38.756Z,42.03
2022-09-11T02:00:06.411Z,44.63
2022-09-11T02:02:44.575Z,43.13
2022-09-11T02:05:16.579Z,47.70
2022-09-11T02:07:45.750Z,47.83
2022-09-11T02:10:23.706Z,51.70
2022-09-11T02:13:05.070Z,43.97
2022-09-11T02:15:50.164Z,45.43
2022-09-11T02:18:54.045Z,38.43
2022-09-11T02:21:17.414Z,43.17
2022-09-11T02:23:39.872Z,40.97
2022-09-11T02:26:05.014Z,41.17
2022-09-11T02:28:29.097Z,38.43
2022-09-11T02:30:51.476Z,40.13
2022-09-11T02:33:32.994Z,41.20
2022-09-11T02:36:27.296Z,42.87
2022-09-11T02:39:17.059Z,38.83
2022-09-11T02:42:01.297Z,36.80
2022-09-11T02:44:45.035Z,36.90
2022-09-11T02:47:19.115Z,39.40
2022-09-11T02:49:59.105Z,33.10
2022-09-11T02:52:40.955Z,34.60
2022-09-11T02:55:37.665Z,38.73
2022-09-11T02:58:17.755Z,31.10
2022-09-11T03:00:40.418Z,32.50
2022-09-11T03:03:04.412Z,38.70
2022-09-11T03:05:28.516Z,30.57
2022-09-11T03:10:12.817Z,27.90
2022-09-11T03:12:36.551Z,27.60
2022-09-11T03:14:58.573Z,27.20
2022-09-11T03:17:21.834Z,31.70
2022-09-11T03:19:43.778Z,33.13
2022-09-11T03:22:05.712Z,29.73
2022-09-11T03:24:27.963Z,37.50
2022-09-11T03:26:49.766Z,34.27
2022-09-11T03:29:12.892Z,28.53
2022-09-11T03:31:39.372Z,31.80
2022-09-11T03:34:02.063Z,33.00
2022-09-11T03:36:23.902Z,33.40
2022-09-11T03:41:11.280Z,27.67
2022-09-11T03:43:35.152Z,34.97
2022-09-11T03:45:57.232Z,31.60
2022-09-11T03:48:19.336Z,32.00
2022-09-11T03:50:42.016Z,31.63
2022-09-11T03:53:03.963Z,31.40
2022-09-11T03:55:25.891Z,32.53
2022-09-11T03:57:47.681Z,31.73
2022-09-11T04:00:10.638Z,32.43
2022-09-11T04:02:49.691Z,31.43
2022-09-11T04:05:25.347Z,31.50
2022-09-11T04:07:48.639Z,30.80
2022-09-11T04:10:11.030Z,28.67
2022-09-11T04:12:33.795Z,28.80
2022-09-11T04:14:57.081Z,30.60
2022-09-11T04:17:20.144Z,33.08
2022-09-11T04:19:42.034Z,25.57
2022-09-11T04:22:04.884Z,42.37
2022-09-11T04:24:30.467Z,32.57
2022-09-11T04:26:58.560Z,29.17
2022-09-11T04:29:24.215Z,30.57
2022-09-11T04:31:46.958Z,98.60
2022-09-11T04:34:11.349Z,131.90
2022-09-11T04:36:33.672Z,63.00
2022-09-11T04:38:58.751Z,82.07
2022-09-11T04:41:20.661Z,83.20
2022-09-11T04:43:43.131Z,146.07
2022-09-11T04:46:17.511Z,162.57
2022-09-11T04:48:56.202Z,261.50
2022-09-11T04:51:34.763Z,172.57
2022-09-11T04:53:58.383Z,132.60
2022-09-11T04:56:32.747Z,201.83
2022-09-11T04:59:01.247Z,75.10
2022-09-11T05:01:27.203Z,256.27
2022-09-11T05:03:52.621Z,235.00
2022-09-11T05:06:16.404Z,216.83
2022-09-11T05:08:39.883Z,133.73
2022-09-11T05:11:02.659Z,94.00
2022-09-11T05:13:24.420Z,186.27
2022-09-11T05:15:47.091Z,231.37
2022-09-11T05:18:08.910Z,269.57
2022-09-11T05:20:31.084Z,179.33
2022-09-11T05:22:53.761Z,239.37
2022-09-11T05:25:15.680Z,188.53
2022-09-11T05:27:37.487Z,314.73
2022-09-11T05:29:59.958Z,55.57
2022-09-11T05:32:24.210Z,302.53
2022-09-11T05:34:46.125Z,104.73
2022-09-11T05:39:37.933Z,432.90
2022-09-11T05:42:01.094Z,406.17
2022-09-11T05:44:27.186Z,193.20
2022-09-11T05:46:49.028Z,183.37
2022-09-11T05:49:10.818Z,215.10
2022-09-11T05:51:37.826Z,115.95
2022-09-11T05:54:00.977Z,232.50
2022-09-11T05:56:25.478Z,278.23
2022-09-11T05:58:51.946Z,160.80
2022-09-11T06:01:19.402Z,215.73
2022-09-11T06:03:48.546Z,258.90
2022-09-11T06:06:13.120Z,205.80
2022-09-11T06:08:36.770Z,53.47
2022-09-11T06:10:59.081Z,91.28
2022-09-11T06:13:21.490Z,84.33
2022-09-11T06:15:49.245Z,73.00
2022-09-11T06:18:11.048Z,55.07
2022-09-11T06:20:32.854Z,83.50
2022-09-11T06:22:56.581Z,277.97
2022-09-11T06:25:20.962Z,193.80
2022-09-11T06:27:42.759Z,142.17
2022-09-11T06:30:05.277Z,97.80
2022-09-11T06:32:30.536Z,51.83
2022-09-11T06:34:52.340Z,74.03
2022-09-11T06:37:14.240Z,78.83
2022-09-11T06:39:36.329Z,110.70
2022-09-11T06:41:58.159Z,78.93
2022-09-11T06:44:24.236Z,56.03
2022-09-11T06:46:48.999Z,53.53
2022-09-11T06:49:12.453Z,59.60
2022-09-11T06:51:54.027Z,57.50
2022-09-11T06:54:16.169Z,70.37
2022-09-11T06:56:38.611Z,62.77
2022-09-11T06:59:01.067Z,55.63
2022-09-11T07:01:25.645Z,42.15
2022-09-11T07:03:55.738Z,56.37
2022-09-11T07:06:22.974Z,67.57
2022-09-11T07:08:50.804Z,44.77
2022-09-11T07:11:13.074Z,67.63
2022-09-11T07:13:38.260Z,66.07
2022-09-11T07:16:08.101Z,55.17
2022-09-11T07:18:42.217Z,31.70
2022-09-11T07:21:12.878Z,43.47
2022-09-11T07:23:36.528Z,111.20
2022-09-11T07:26:03.866Z,68.30
2022-09-11T07:28:25.655Z,60.57
2022-09-11T07:30:47.663Z,50.93
2022-09-11T07:33:09.601Z,60.53
2022-09-11T07:35:31.500Z,36.27
2022-09-11T07:37:53.325Z,47.07
2022-09-11T07:40:19.966Z,73.87
2022-09-11T07:42:42.136Z,307.57
2022-09-11T07:45:04.378Z,44.17
2022-09-11T07:47:28.258Z,207.20
2022-09-11T07:49:50.567Z,306.07
2022-09-11T07:52:18.586Z,206.67
2022-09-11T07:54:47.084Z,35.23
2022-09-11T07:59:33.549Z,61.67
2022-09-11T08:01:56.743Z,44.37
2022-09-11T08:04:19.663Z,45.60
2022-09-11T08:06:42.520Z,84.60
2022-09-11T08:09:15.544Z,46.93
2022-09-11T08:11:48.693Z,55.47
2022-09-11T08:14:13.698Z,42.60
2022-09-11T08:16:36.241Z,36.53
2022-09-11T08:18:59.116Z,38.50
2022-09-11T08:21:23.315Z,51.03
2022-09-11T08:23:46.760Z,77.67
2022-09-11T08:26:17.388Z,36.90
2022-09-11T08:28:45.019Z,46.57
2022-09-11T08:31:07.294Z,40.63
2022-09-11T08:33:31.148Z,46.70
2022-09-11T08:35:52.956Z,43.10
2022-09-11T08:38:14.753Z,45.37
2022-09-11T08:40:38.984Z,38.77
2022-09-11T08:43:03.678Z,40.83
2022-09-11T08:45:34.621Z,40.25
2022-09-11T08:47:59.014Z,34.57
2022-09-11T08:50:36.678Z,41.83
2022-09-11T08:53:03.746Z,39.90
2022-09-11T08:55:39.482Z,41.87
2022-09-11T08:58:21.007Z,37.35
2022-09-11T09:00:55.987Z,39.60
2022-09-11T09:03:49.874Z,47.30
2022-09-11T09:06:40.554Z,41.00
2022-09-11T09:09:43.018Z,52.33
2022-09-11T09:12:32.447Z,70.63
2022-09-11T09:15:17.009Z,78.60
2022-09-11T09:17:49.259Z,71.77
2022-09-11T09:20:29.899Z,66.97
2022-09-11T09:23:00.435Z,61.37
2022-09-11T09:25:26.541Z,62.40
2022-09-11T09:28:07.866Z,64.93
2022-09-11T09:30:50.605Z,66.67
2022-09-11T09:33:42.489Z,58.77
2022-09-11T09:36:20.882Z,63.63
2022-09-11T09:38:44.356Z,60.97
2022-09-11T09:41:34.310Z,54.95
2022-09-11T09:44:08.355Z,52.20
2022-09-11T09:46:50.841Z,49.57
2022-09-11T09:49:27.831Z,49.23
2022-09-11T09:51:51.262Z,53.57
2022-09-11T09:54:22.862Z,52.13
2022-09-11T09:56:56.919Z,49.83
2022-09-11T09:59:40.728Z,47.95
2022-09-11T10:02:03.053Z,50.57
2022-09-11T10:04:28.160Z,52.33
2022-09-11T10:06:55.304Z,56.08
2022-09-11T10:09:29.508Z,57.50
2022-09-11T10:11:58.220Z,55.90
2022-09-11T10:14:49.351Z,47.88
2022-09-11T10:17:04.752Z,48.42
2022-09-11T10:19:43.076Z,41.38
2022-09-11T10:22:34.243Z,46.83
2022-09-11T10:25:23.193Z,46.85
2022-09-11T10:27:59.172Z,50.63
2022-09-11T10:31:03.236Z,48.88
2022-09-11T10:33:38.282Z,49.78
2022-09-11T10:36:05.425Z,44.83
2022-09-11T10:38:41.474Z,41.25
2022-09-11T10:41:03.430Z,42.33
2022-09-11T10:44:00.568Z,40.47
2022-09-11T10:46:40.986Z,40.35
2022-09-11T10:49:02.963Z,40.60
2022-09-11T10:51:29.776Z,39.25
2022-09-11T10:54:02.219Z,36.83
2022-09-11T10:56:25.398Z,36.28
2022-09-11T10:58:55.066Z,37.40
2022-09-11T11:01:17.036Z,34.17
2022-09-11T11:03:38.820Z,33.88
2022-09-11T11:06:25.869Z,34.35
2022-09-11T11:09:31.093Z,33.13
2022-09-11T11:12:40.166Z,33.55
2022-09-11T11:15:26.944Z,33.60
2022-09-11T11:18:11.873Z,33.65
2022-09-11T11:21:10.807Z,32.20
2022-09-11T11:23:51.205Z,33.10
2022-09-11T11:26:55.798Z,33.80
2022-09-11T11:29:57.883Z,30.75
2022-09-11T11:33:16.549Z,29.75
2022-09-11T11:36:08.395Z,30.08
2022-09-11T11:39:14.746Z,26.90
2022-09-11T11:41:45.539Z,25.90
2022-09-11T11:44:16.048Z,25.95
2022-09-11T11:46:48.848Z,27.35
2022-09-11T11:50:01.275Z,24.60
2022-09-11T11:52:32.335Z,27.00
2022-09-11T11:55:21.592Z,26.35
2022-09-11T11:57:57.633Z,24.50
2022-09-11T12:00:20.144Z,25.50
2022-09-11T12:03:11.194Z,26.77
2022-09-11T12:05:34.839Z,25.80
2022-09-11T12:07:58.025Z,26.88
2022-09-11T12:10:34.448Z,25.02
2022-09-11T12:13:02.195Z,23.35
2022-09-11T12:15:32.348Z,23.25
2022-09-11T12:18:24.978Z,25.30
2022-09-11T12:20:46.879Z,24.75
2022-09-11T12:23:31.144Z,22.92
2022-09-11T12:26:20.786Z,26.10
2022-09-11T12:28:42.816Z,23.95
2022-09-11T12:31:11.705Z,21.80
2022-09-11T12:33:47.272Z,22.98
2022-09-11T12:36:48.570Z,21.85
2022-09-11T12:39:40.188Z,22.38
2022-09-11T12:42:23.960Z,20.55
2022-09-11T12:44:45.723Z,21.67
2022-09-11T12:47:16.530Z,23.23
2022-09-11T12:49:40.508Z,23.25
2022-09-11T12:52:02.745Z,21.92
2022-09-11T12:54:39.159Z,22.58
2022-09-11T12:57:23.875Z,19.33
2022-09-11T12:59:55.998Z,19.15
2022-09-11T13:02:43.022Z,17.35
2022-09-11T13:05:27.167Z,16.98
2022-09-11T13:07:57.575Z,17.30
2022-09-11T13:10:38.821Z,21.15
2022-09-11T13:13:35.848Z,20.30
2022-09-11T13:15:58.697Z,21.27
2022-09-11T13:18:25.316Z,20.90
2022-09-11T13:20:59.464Z,19.02
2022-09-11T13:23:21.222Z,17.88
2022-09-11T13:25:43.253Z,17.25
2022-09-11T13:28:06.830Z,16.13
2022-09-11T13:30:28.931Z,14.20
2022-09-11T13:33:20.414Z,20.77
2022-09-11T13:35:46.402Z,21.65
2022-09-11T13:38:16.714Z,22.85
2022-09-11T13:40:47.566Z,22.80
2022-09-11T13:43:25.571Z,21.77
2022-09-11T13:45:47.710Z,19.67
2022-09-11T13:48:21.239Z,18.77
2022-09-11T13:50:43.170Z,18.75
2022-09-11T13:53:05.219Z,18.98
2022-09-11T13:55:27.513Z,17.00
2022-09-11T13:58:01.690Z,17.42
2022-09-11T14:00:41.609Z,18.38
2022-09-11T14:03:06.890Z,16.90
2022-09-11T14:05:32.565Z,16.27
2022-09-11T14:08:27.154Z,16.00
2022-09-11T14:10:53.523Z,17.90
2022-09-11T14:13:27.617Z,17.60
2022-09-11T14:16:03.421Z,17.08
2022-09-11T14:18:42.699Z,17.63
2022-09-11T14:21:14.825Z,16.85
2022-09-11T14:23:48.275Z,17.88
2022-09-11T14:26:16.058Z,17.77
2022-09-11T14:29:00.395Z,19.83
2022-09-11T14:31:44.182Z,19.45
2022-09-11T14:34:20.899Z,18.88
2022-09-11T14:36:58.727Z,17.92
2022-09-11T14:39:29.748Z,17.33
2022-09-11T14:41:55.132Z,18.48
2022-09-11T14:44:17.700Z,18.65
2022-09-11T14:46:39.523Z,18.88
2022-09-11T14:49:02.648Z,17.45
2022-09-11T14:51:24.439Z,17.67
2022-09-11T14:53:46.422Z,17.10
2022-09-11T14:56:09.277Z,15.73
2022-09-11T14:58:31.581Z,16.58
2022-09-11T15:00:54.729Z,19.33
2022-09-11T15:03:16.835Z,14.93
2022-09-11T15:05:38.765Z,15.10
2022-09-11T15:08:01.108Z,16.17
2022-09-11T15:10:22.891Z,14.70
2022-09-11T15:12:44.796Z,16.17
2022-09-11T15:15:11.252Z,15.32
2022-09-11T15:17:33.837Z,14.75
2022-09-11T15:19:55.585Z,15.23
2022-09-11T15:22:17.982Z,17.15
2022-09-11T15:24:39.950Z,15.77
2022-09-11T15:27:01.763Z,16.85
2022-09-11T15:29:29.413Z,15.57
2022-09-11T15:31:56.338Z,14.73
2022-09-11T15:34:18.999Z,14.85
2022-09-11T15:36:41.793Z,14.13
2022-09-11T15:39:08.703Z,14.32
2022-09-11T15:41:31.079Z,13.23
2022-09-11T15:43:52.907Z,13.93
2022-09-11T15:46:14.881Z,14.45
2022-09-11T15:48:40.290Z,12.95
2022-09-11T15:51:02.882Z,11.52
2022-09-11T15:53:25.336Z,11.30
2022-09-11T15:55:47.119Z,11.52
2022-09-11T15:58:09.369Z,10.65
2022-09-11T16:00:31.150Z,9.55
2022-09-11T16:02:53.383Z,19.23
2022-09-11T16:05:15.407Z,9.50
2022-09-11T16:07:37.178Z,9.48
2022-09-11T16:09:58.999Z,8.60
2022-09-11T16:12:20.756Z,9.13
2022-09-11T16:14:43.623Z,8.65
2022-09-11T16:17:07.670Z,8.70
2022-09-11T16:19:30.478Z,8.70
2022-09-11T16:21:54.817Z,8.05
2022-09-11T16:26:38.857Z,8.55
2022-09-11T16:29:02.235Z,9.45
2022-09-11T16:31:24.106Z,9.98
2022-09-11T16:33:49.913Z,10.77
2022-09-11T16:36:17.492Z,11.43
2022-09-11T16:38:41.035Z,10.27
2022-09-11T16:41:07.550Z,10.10
2022-09-11T16:43:31.517Z,9.55
2022-09-11T16:45:53.650Z,9.15
2022-09-11T16:48:17.222Z,9.00
2022-09-11T16:50:40.178Z,9.23
2022-09-11T16:53:02.140Z,9.80
2022-09-11T16:55:23.985Z,9.35
2022-09-11T16:57:47.625Z,9.60
2022-09-11T17:00:10.754Z,9.15
2022-09-11T17:02:32.764Z,9.52
2022-09-11T17:04:54.523Z,9.60
2022-09-11T17:07:16.366Z,12.07
2022-09-11T17:09:38.681Z,10.35
2022-09-11T17:12:00.480Z,9.82
2022-09-11T17:14:22.324Z,10.35
2022-09-11T17:16:44.108Z,9.93
2022-09-11T17:19:05.898Z,9.50
2022-09-11T17:21:30.336Z,9.48
2022-09-11T17:26:20.510Z,10.25
2022-09-11T17:28:44.772Z,10.25
2022-09-11T17:31:10.591Z,10.35
2022-09-11T17:33:32.416Z,10.57
2022-09-11T17:35:54.186Z,9.32
2022-09-11T17:38:15.942Z,10.45
2022-09-11T17:40:39.019Z,10.70
2022-09-11T17:43:01.265Z,9.80
2022-09-11T17:45:23.458Z,11.00
2022-09-11T17:47:45.288Z,10.68
2022-09-11T17:50:08.118Z,11.05
2022-09-11T17:52:32.075Z,10.27
2022-09-11T17:54:53.910Z,11.13
2022-09-11T17:57:16.139Z,11.70
2022-09-11T17:59:39.206Z,11.80
2022-09-11T18:02:02.168Z,12.68
2022-09-11T18:04:23.967Z,12.88
2022-09-11T18:06:46.717Z,13.27
2022-09-11T18:09:15.165Z,13.07
2022-09-11T18:11:37.397Z,14.27
2022-09-11T18:14:00.341Z,13.82
2022-09-11T18:16:22.731Z,13.98
2022-09-11T18:18:44.749Z,15.07
2022-09-11T18:21:09.264Z,14.75
2022-09-11T18:25:52.772Z,14.13
2022-09-11T18:28:14.519Z,14.40
2022-09-11T18:30:41.324Z,13.90
2022-09-11T18:33:07.741Z,14.68
2022-09-11T18:35:33.321Z,15.18
2022-09-11T18:37:55.152Z,15.52
2022-09-11T18:40:17.153Z,14.73
2022-09-11T18:42:40.883Z,16.35
2022-09-11T18:45:02.641Z,17.05
2022-09-11T18:47:27.750Z,16.77
2022-09-11T18:49:51.473Z,16.73
2022-09-11T18:52:14.639Z,16.75
2022-09-11T18:54:37.241Z,16.98
2022-09-11T18:57:00.204Z,17.10
2022-09-11T18:59:22.399Z,17.60
2022-09-11T19:01:44.306Z,18.57
2022-09-11T19:04:12.327Z,17.60
2022-09-11T19:06:34.491Z,18.53
2022-09-11T19:08:56.668Z,16.63
2022-09-11T19:11:26.262Z,15.87
2022-09-11T19:13:49.576Z,16.00
2022-09-11T19:16:12.889Z,16.27
2022-09-11T19:18:36.862Z,17.50
2022-09-11T19:21:03.883Z,16.15
2022-09-11T19:23:29.322Z,16.83
2022-09-11T19:25:51.102Z,16.70
2022-09-11T19:28:12.832Z,18.43
2022-09-11T19:30:35.046Z,18.57
2022-09-11T19:32:56.802Z,20.27
2022-09-11T19:35:19.211Z,19.20
2022-09-11T19:37:40.950Z,18.33
2022-09-11T19:40:04.017Z,18.07
2022-09-11T19:42:25.977Z,19.33
2022-09-11T19:44:47.773Z,18.53
2022-09-11T19:47:09.753Z,19.03
2022-09-11T19:49:31.577Z,19.37
2022-09-11T19:51:54.629Z,19.60
2022-09-11T19:54:16.351Z,19.70
2022-09-11T19:56:38.831Z,20.20
2022-09-11T19:59:00.674Z,20.73
2022-09-11T20:01:25.706Z,21.23
2022-09-11T20:03:49.600Z,20.77
2022-09-11T20:06:14.700Z,21.63
2022-09-11T20:08:40.291Z,20.00
2022-09-11T20:11:06.172Z,19.23
2022-09-11T20:13:28.582Z,19.00
2022-09-11T20:15:50.396Z,20.33
2022-09-11T20:18:12.420Z,21.50
2022-09-11T20:20:36.779Z,18.13
2022-09-11T20:23:00.438Z,18.75
2022-09-11T20:25:22.675Z,18.90
2022-09-11T20:27:44.398Z,19.40
2022-09-11T20:30:06.825Z,20.17
2022-09-11T20:32:28.848Z,19.70
2022-09-11T20:34:50.645Z,18.07
2022-09-11T20:37:12.614Z,19.13
2022-09-11T20:39:35.127Z,20.27
2022-09-11T20:41:57.092Z,20.97
2022-09-11T20:44:18.938Z,22.07
2022-09-11T20:46:40.867Z,20.50
2022-09-11T20:49:04.800Z,19.63
2022-09-11T20:51:26.830Z,19.27
2022-09-11T20:53:49.069Z,18.97
2022-09-11T20:56:14.519Z,20.27
2022-09-11T20:58:38.022Z,19.90
2022-09-11T21:01:00.797Z,20.03
2022-09-11T21:03:23.034Z,18.80
2022-09-11T21:05:44.832Z,19.03
2022-09-11T21:08:06.641Z,21.43
2022-09-11T21:10:28.543Z,22.57
2022-09-11T21:12:51.647Z,20.93
2022-09-11T21:15:13.495Z,19.50
2022-09-11T21:17:35.304Z,19.83
2022-09-11T21:19:57.631Z,19.77
2022-09-11T21:22:19.788Z,20.77
2022-09-11T21:24:43.036Z,19.73
2022-09-11T21:27:05.130Z,21.37
2022-09-11T21:29:26.908Z,19.43
2022-09-11T21:31:48.743Z,19.63
2022-09-11T21:34:11.307Z,21.17
2022-09-11T21:36:33.562Z,19.43
2022-09-11T21:38:56.161Z,21.87
2022-09-11T21:41:17.964Z,21.77
2022-09-11T21:43:40.367Z,19.63
2022-09-11T21:46:04.256Z,19.90
2022-09-11T21:48:26.169Z,22.43
2022-09-11T21:50:48.302Z,21.27
2022-09-11T21:53:11.431Z,22.93
2022-09-11T21:55:38.398Z,20.07
2022-09-11T21:58:00.149Z,21.80
2022-09-11T22:00:24.697Z,21.33
2022-09-11T22:05:09.529Z,17.20
2022-09-11T22:07:31.876Z,18.37
2022-09-11T22:09:53.708Z,18.63
2022-09-11T22:12:16.119Z,18.63
2022-09-11T22:14:37.940Z,19.30
2022-09-11T22:16:59.851Z,19.53
2022-09-11T22:19:21.650Z,17.87
2022-09-11T22:21:44.143Z,19.17
2022-09-11T22:24:06.181Z,22.07
2022-09-11T22:26:30.920Z,21.10
2022-09-11T22:28:52.914Z,22.30
2022-09-11T22:31:20.097Z,20.73
2022-09-11T22:33:42.845Z,21.50
2022-09-11T22:36:28.087Z,21.40
2022-09-11T22:38:50.132Z,20.25
2022-09-11T22:41:12.424Z,20.30
2022-09-11T22:43:34.320Z,21.10
2022-09-11T22:45:56.328Z,22.00
2022-09-11T22:48:18.156Z,20.17
2022-09-11T22:50:39.903Z,23.27
2022-09-11T22:53:01.721Z,20.40
2022-09-11T22:55:23.482Z,21.40
2022-09-11T22:57:45.245Z,19.73
2022-09-11T23:00:11.961Z,21.77
2022-09-11T23:02:33.914Z,21.90
2022-09-11T23:05:14.251Z,21.33
2022-09-11T23:07:36.047Z,20.27
2022-09-11T23:09:57.804Z,24.67
2022-09-11T23:12:19.748Z,25.07
2022-09-11T23:14:41.501Z,26.93
2022-09-11T23:17:03.294Z,25.17
2022-09-11T23:19:25.194Z,23.83
2022-09-11T23:21:47.037Z,26.73
2022-09-11T23:24:14.385Z,21.70
2022-09-11T23:26:36.847Z,21.73
2022-09-11T23:28:59.364Z,18.50
2022-09-11T23:31:31.635Z,19.33
2022-09-11T23:33:57.606Z,20.00
2022-09-11T23:36:19.386Z,21.60
2022-09-11T23:38:45.612Z,23.10
2022-09-11T23:41:07.591Z,19.67
2022-09-11T23:43:29.400Z,19.83
2022-09-11T23:45:51.369Z,19.50
2022-09-11T23:48:13.179Z,17.67
2022-09-11T23:50:35.047Z,18.53
2022-09-11T23:52:56.891Z,18.47
2022-09-11T23:55:19.179Z,17.67
2022-09-11T23:57:40.942Z,16.27
